sensor_id;sensor_type;location;lat;lon;timestamp;pressure;altitude;pressure_sealevel;temperature;humidity
56912;BME280;42800;53.928;27.662;2023-01-08T00:00:50;99759.91;;;-10.52;100.00
56912;BME280;42800;53.928;27.662;2023-01-08T00:03:17;99679.88;;;-10.67;100.00
56912;BME280;42800;53.928;27.662;2023-01-08T00:05:44;99627.16;;;-11.07;100.00
56912;BME280;42800;53.928;27.662;2023-01-08T00:08:10;99619.22;;;-11.07;100.00
56912;BME280;42800;53.928;27.662;2023-01-08T00:10:37;99616.59;;;-11.14;100.00
56912;BME280;42800;53.928;27.662;2023-01-08T00:13:05;99626.75;;;-11.10;100.00
56912;BME280;42800;53.928;27.662;2023-01-08T00:15:31;99634.16;;;-11.19;100.00
56912;BME280;42800;53.928;27.662;2023-01-08T00:17:58;99644.25;;;-11.09;100.00
56912;BME280;42800;53.928;27.662;2023-01-08T00:20:24;99645.38;;;-10.85;100.00
56912;BME280;42800;53.928;27.662;2023-01-08T00:22:51;99612.16;;;-11.20;100.00
56912;BME280;42800;53.928;27.662;2023-01-08T00:25:18;99640.28;;;-11.25;100.00
56912;BME280;42800;53.928;27.662;2023-01-08T00:27:45;99659.38;;;-11.17;100.00
56912;BME280;42800;53.928;27.662;2023-01-08T00:30:12;99700.28;;;-10.68;100.00
56912;BME280;42800;53.928;27.662;2023-01-08T00:32:38;99664.34;;;-10.88;100.00
56912;BME280;42800;53.928;27.662;2023-01-08T00:35:05;99668.91;;;-10.71;100.00
56912;BME280;42800;53.928;27.662;2023-01-08T00:37:31;99682.53;;;-10.67;100.00
56912;BME280;42800;53.928;27.662;2023-01-08T00:39:58;99679.00;;;-10.54;100.00
56912;BME280;42800;53.928;27.662;2023-01-08T00:42:25;99664.41;;;-10.20;100.00
56912;BME280;42800;53.928;27.662;2023-01-08T00:44:51;99618.75;;;-10.22;100.00
56912;BME280;42800;53.928;27.662;2023-01-08T00:47:17;99558.44;;;-10.70;100.00
56912;BME280;42800;53.928;27.662;2023-01-08T00:49:43;99547.81;;;-10.88;100.00
56912;BME280;42800;53.928;27.662;2023-01-08T00:52:11;99574.53;;;-10.47;100.00
56912;BME280;42800;53.928;27.662;2023-01-08T00:54:37;99561.22;;;-10.58;100.00
56912;BME280;42800;53.928;27.662;2023-01-08T00:57:04;99556.06;;;-10.78;100.00
56912;BME280;42800;53.928;27.662;2023-01-08T00:59:30;99553.94;;;-10.70;100.00
56912;BME280;42800;53.928;27.662;2023-01-08T01:01:56;99547.34;;;-10.60;100.00
56912;BME280;42800;53.928;27.662;2023-01-08T01:04:24;99533.09;;;-10.59;100.00
56912;BME280;42800;53.928;27.662;2023-01-08T01:06:51;99529.78;;;-10.36;100.00
56912;BME280;42800;53.928;27.662;2023-01-08T01:09:17;99518.13;;;-10.29;100.00
56912;BME280;42800;53.928;27.662;2023-01-08T01:11:43;99487.63;;;-10.38;100.00
56912;BME280;42800;53.928;27.662;2023-01-08T01:14:10;99470.31;;;-10.59;100.00
56912;BME280;42800;53.928;27.662;2023-01-08T01:16:36;99484.66;;;-10.30;100.00
56912;BME280;42800;53.928;27.662;2023-01-08T01:19:04;99466.53;;;-10.70;100.00
56912;BME280;42800;53.928;27.662;2023-01-08T01:21:31;99489.41;;;-10.32;100.00
56912;BME280;42800;53.928;27.662;2023-01-08T01:23:59;99474.56;;;-10.39;100.00
56912;BME280;42800;53.928;27.662;2023-01-08T01:26:26;99474.84;;;-10.11;100.00
56912;BME280;42800;53.928;27.662;2023-01-08T01:28:54;99442.13;;;-10.53;100.00
56912;BME280;42800;53.928;27.662;2023-01-08T01:31:22;99452.41;;;-10.27;100.00
56912;BME280;42800;53.928;27.662;2023-01-08T01:33:49;99414.00;;;-10.54;100.00
56912;BME280;42800;53.928;27.662;2023-01-08T01:36:18;99430.72;;;-10.54;100.00
56912;BME280;42800;53.928;27.662;2023-01-08T01:38:46;99455.34;;;-10.53;100.00
56912;BME280;42800;53.928;27.662;2023-01-08T01:41:18;99477.38;;;-10.34;100.00
56912;BME280;42800;53.928;27.662;2023-01-08T01:43:48;99478.25;;;-10.59;100.00
56912;BME280;42800;53.928;27.662;2023-01-08T01:46:23;99512.72;;;-10.22;100.00
56912;BME280;42800;53.928;27.662;2023-01-08T01:48:54;99492.50;;;-10.35;100.00
56912;BME280;42800;53.928;27.662;2023-01-08T01:51:21;99496.63;;;-10.39;100.00
56912;BME280;42800;53.928;27.662;2023-01-08T01:53:50;99495.28;;;-10.30;100.00
56912;BME280;42800;53.928;27.662;2023-01-08T01:56:17;99504.16;;;-10.24;100.00
56912;BME280;42800;53.928;27.662;2023-01-08T01:58:43;99505.75;;;-9.86;100.00
56912;BME280;42800;53.928;27.662;2023-01-08T02:01:09;99483.13;;;-10.37;100.00
56912;BME280;42800;53.928;27.662;2023-01-08T02:03:38;99513.13;;;-10.07;100.00
56912;BME280;42800;53.928;27.662;2023-01-08T02:06:14;99482.25;;;-10.31;100.00
56912;BME280;42800;53.928;27.662;2023-01-08T02:08:48;99502.53;;;-10.07;100.00
56912;BME280;42800;53.928;27.662;2023-01-08T02:11:21;99473.88;;;-9.98;100.00
56912;BME280;42800;53.928;27.662;2023-01-08T02:13:54;99455.19;;;-10.22;100.00
56912;BME280;42800;53.928;27.662;2023-01-08T02:16:27;99451.91;;;-10.54;100.00
56912;BME280;42800;53.928;27.662;2023-01-08T02:18:58;99482.75;;;-10.41;100.00
56912;BME280;42800;53.928;27.662;2023-01-08T02:21:31;99500.38;;;-10.28;100.00
56912;BME280;42800;53.928;27.662;2023-01-08T02:24:06;99501.47;;;-10.36;100.00
56912;BME280;42800;53.928;27.662;2023-01-08T02:26:37;99486.72;;;-10.69;100.00
56912;BME280;42800;53.928;27.662;2023-01-08T02:29:06;99527.06;;;-10.48;100.00
56912;BME280;42800;53.928;27.662;2023-01-08T02:31:34;99576.34;;;-10.04;100.00
56912;BME280;42800;53.928;27.662;2023-01-08T02:34:01;99560.81;;;-10.19;100.00
56912;BME280;42800;53.928;27.662;2023-01-08T02:36:31;99555.13;;;-10.22;100.00
56912;BME280;42800;53.928;27.662;2023-01-08T02:39:10;99539.66;;;-10.44;100.00
56912;BME280;42800;53.928;27.662;2023-01-08T02:41:55;99560.44;;;-10.22;100.00
56912;BME280;42800;53.928;27.662;2023-01-08T02:44:27;99571.47;;;-10.07;100.00
56912;BME280;42800;53.928;27.662;2023-01-08T02:47:00;99565.84;;;-10.29;100.00
56912;BME280;42800;53.928;27.662;2023-01-08T02:49:29;99560.53;;;-10.29;100.00
56912;BME280;42800;53.928;27.662;2023-01-08T02:51:59;99563.94;;;-10.47;100.00
56912;BME280;42800;53.928;27.662;2023-01-08T02:54:30;99598.06;;;-10.13;100.00
56912;BME280;42800;53.928;27.662;2023-01-08T02:57:02;99572.81;;;-10.34;100.00
56912;BME280;42800;53.928;27.662;2023-01-08T02:59:31;99578.50;;;-10.12;100.00
56912;BME280;42800;53.928;27.662;2023-01-08T03:02:00;99576.47;;;-10.17;100.00
56912;BME280;42800;53.928;27.662;2023-01-08T03:04:29;99561.22;;;-10.58;100.00
56912;BME280;42800;53.928;27.662;2023-01-08T03:06:56;99597.34;;;-10.39;100.00
56912;BME280;42800;53.928;27.662;2023-01-08T03:09:22;99645.03;;;-9.77;100.00
56912;BME280;42800;53.928;27.662;2023-01-08T03:11:52;99614.19;;;-10.15;100.00
56912;BME280;42800;53.928;27.662;2023-01-08T03:14:26;99627.28;;;-10.20;100.00
56912;BME280;42800;53.928;27.662;2023-01-08T03:16:56;99631.47;;;-10.06;100.00
56912;BME280;42800;53.928;27.662;2023-01-08T03:19:26;99646.41;;;-10.11;100.00
56912;BME280;42800;53.928;27.662;2023-01-08T03:21:53;99668.19;;;-9.66;100.00
56912;BME280;42800;53.928;27.662;2023-01-08T03:24:24;99642.09;;;-9.69;100.00
56912;BME280;42800;53.928;27.662;2023-01-08T03:26:55;99621.88;;;-10.07;100.00
56912;BME280;42800;53.928;27.662;2023-01-08T03:29:25;99667.28;;;-9.78;100.00
56912;BME280;42800;53.928;27.662;2023-01-08T03:31:56;99643.44;;;-10.03;100.00
56912;BME280;42800;53.928;27.662;2023-01-08T03:34:25;99660.13;;;-9.96;100.00
56912;BME280;42800;53.928;27.662;2023-01-08T03:36:55;99665.88;;;-9.99;100.00
56912;BME280;42800;53.928;27.662;2023-01-08T03:39:26;99664.72;;;-10.10;100.00
56912;BME280;42800;53.928;27.662;2023-01-08T03:41:57;99676.69;;;-10.01;100.00
56912;BME280;42800;53.928;27.662;2023-01-08T03:44:26;99665.63;;;-10.16;100.00
56912;BME280;42800;53.928;27.662;2023-01-08T03:46:53;99685.47;;;-10.25;100.00
56912;BME280;42800;53.928;27.662;2023-01-08T03:49:21;99726.28;;;-10.01;100.00
56912;BME280;42800;53.928;27.662;2023-01-08T03:51:48;99734.00;;;-10.00;100.00
56912;BME280;42800;53.928;27.662;2023-01-08T03:54:16;99748.91;;;-9.99;100.00
56912;BME280;42800;53.928;27.662;2023-01-08T03:56:43;99766.19;;;-9.89;100.00
56912;BME280;42800;53.928;27.662;2023-01-08T03:59:09;99728.97;;;-10.08;100.00
56912;BME280;42800;53.928;27.662;2023-01-08T04:01:37;99737.13;;;-9.59;100.00
56912;BME280;42800;53.928;27.662;2023-01-08T04:04:04;99713.00;;;-9.76;100.00
56912;BME280;42800;53.928;27.662;2023-01-08T04:06:30;99692.97;;;-9.72;100.00
56912;BME280;42800;53.928;27.662;2023-01-08T04:08:56;99684.53;;;-9.87;100.00
56912;BME280;42800;53.928;27.662;2023-01-08T04:11:23;99694.66;;;-9.59;100.00
56912;BME280;42800;53.928;27.662;2023-01-08T04:13:49;99656.34;;;-10.07;100.00
56912;BME280;42800;53.928;27.662;2023-01-08T04:16:15;99684.94;;;-10.09;100.00
56912;BME280;42800;53.928;27.662;2023-01-08T04:18:42;99710.06;;;-9.93;100.00
56912;BME280;42800;53.928;27.662;2023-01-08T04:21:10;99728.75;;;-9.81;100.00
56912;BME280;42800;53.928;27.662;2023-01-08T04:23:36;99720.22;;;-9.65;100.00
56912;BME280;42800;53.928;27.662;2023-01-08T04:26:03;99696.75;;;-9.86;100.00
56912;BME280;42800;53.928;27.662;2023-01-08T04:28:30;99723.53;;;-9.69;100.00
56912;BME280;42800;53.928;27.662;2023-01-08T04:30:56;99746.91;;;-9.78;100.00
56912;BME280;42800;53.928;27.662;2023-01-08T04:33:22;99748.88;;;-9.74;100.00
56912;BME280;42800;53.928;27.662;2023-01-08T04:35:50;99752.25;;;-9.85;100.00
56912;BME280;42800;53.928;27.662;2023-01-08T04:38:17;99766.38;;;-9.66;100.00
56912;BME280;42800;53.928;27.662;2023-01-08T04:40:43;99768.00;;;-9.90;100.00
56912;BME280;42800;53.928;27.662;2023-01-08T04:43:09;99771.69;;;-9.66;100.00
56912;BME280;42800;53.928;27.662;2023-01-08T04:45:35;99776.22;;;-9.73;100.00
56912;BME280;42800;53.928;27.662;2023-01-08T04:48:01;99782.25;;;-9.84;100.00
56912;BME280;42800;53.928;27.662;2023-01-08T04:50:28;99772.41;;;-10.02;100.00
56912;BME280;42800;53.928;27.662;2023-01-08T04:52:57;99813.66;;;-9.81;100.00
56912;BME280;42800;53.928;27.662;2023-01-08T04:55:23;99812.66;;;-10.12;100.00
56912;BME280;42800;53.928;27.662;2023-01-08T04:57:49;99860.66;;;-9.63;100.00
56912;BME280;42800;53.928;27.662;2023-01-08T05:00:16;99860.72;;;-9.70;100.00
56912;BME280;42800;53.928;27.662;2023-01-08T05:02:42;99870.78;;;-9.54;100.00
56912;BME280;42800;53.928;27.662;2023-01-08T05:05:09;99865.31;;;-9.34;100.00
56912;BME280;42800;53.928;27.662;2023-01-08T05:07:35;99826.81;;;-9.68;100.00
56912;BME280;42800;53.928;27.662;2023-01-08T05:10:02;99842.53;;;-9.41;100.00
56912;BME280;42800;53.928;27.662;2023-01-08T05:12:28;99812.50;;;-9.67;100.00
56912;BME280;42800;53.928;27.662;2023-01-08T05:14:54;99812.94;;;-9.70;100.00
56912;BME280;42800;53.928;27.662;2023-01-08T05:17:21;99823.44;;;-9.57;100.00
56912;BME280;42800;53.928;27.662;2023-01-08T05:19:47;99827.25;;;-9.71;100.00
56912;BME280;42800;53.928;27.662;2023-01-08T05:22:13;99830.22;;;-9.86;100.00
56912;BME280;42800;53.928;27.662;2023-01-08T05:24:39;99886.53;;;-9.52;100.00
56912;BME280;42800;53.928;27.662;2023-01-08T05:27:06;99864.31;;;-9.58;100.00
56912;BME280;42800;53.928;27.662;2023-01-08T05:29:32;99856.56;;;-9.59;100.00
56912;BME280;42800;53.928;27.662;2023-01-08T05:31:59;99855.69;;;-9.53;100.00
56912;BME280;42800;53.928;27.662;2023-01-08T05:34:25;99850.31;;;-9.72;100.00
56912;BME280;42800;53.928;27.662;2023-01-08T05:36:51;99870.84;;;-9.60;100.00
56912;BME280;42800;53.928;27.662;2023-01-08T05:39:18;99882.41;;;-9.48;100.00
56912;BME280;42800;53.928;27.662;2023-01-08T05:41:44;99891.53;;;-9.69;100.00
56912;BME280;42800;53.928;27.662;2023-01-08T05:44:11;99909.09;;;-9.43;100.00
56912;BME280;42800;53.928;27.662;2023-01-08T05:46:38;99898.13;;;-9.21;100.00
56912;BME280;42800;53.928;27.662;2023-01-08T05:49:04;99878.84;;;-9.17;100.00
56912;BME280;42800;53.928;27.662;2023-01-08T05:51:31;99824.91;;;-9.61;100.00
56912;BME280;42800;53.928;27.662;2023-01-08T05:53:57;99838.13;;;-9.54;100.00
56912;BME280;42800;53.928;27.662;2023-01-08T05:56:23;99835.91;;;-9.82;100.00
56912;BME280;42800;53.928;27.662;2023-01-08T05:58:52;99890.56;;;-9.75;100.00
56912;BME280;42800;53.928;27.662;2023-01-08T06:01:19;99923.19;;;-9.74;100.00
56912;BME280;42800;53.928;27.662;2023-01-08T06:03:45;99938.75;;;-9.78;100.00
56912;BME280;42800;53.928;27.662;2023-01-08T06:06:12;99964.09;;;-9.50;100.00
56912;BME280;42800;53.928;27.662;2023-01-08T06:08:38;99951.63;;;-9.81;100.00
56912;BME280;42800;53.928;27.662;2023-01-08T06:11:06;99991.25;;;-9.48;100.00
56912;BME280;42800;53.928;27.662;2023-01-08T06:13:33;99977.16;;;-9.49;100.00
56912;BME280;42800;53.928;27.662;2023-01-08T06:16:00;99973.19;;;-9.71;100.00
56912;BME280;42800;53.928;27.662;2023-01-08T06:18:28;99989.84;;;-9.57;100.00
56912;BME280;42800;53.928;27.662;2023-01-08T06:20:55;100006.44;;;-9.62;100.00
56912;BME280;42800;53.928;27.662;2023-01-08T06:23:21;100040.88;;;-9.49;100.00
56912;BME280;42800;53.928;27.662;2023-01-08T06:25:51;100035.44;;;-9.67;100.00
56912;BME280;42800;53.928;27.662;2023-01-08T06:28:18;100067.78;;;-9.38;100.00
56912;BME280;42800;53.928;27.662;2023-01-08T06:30:45;100065.66;;;-9.30;100.00
56912;BME280;42800;53.928;27.662;2023-01-08T06:33:11;100073.81;;;-9.25;100.00
56912;BME280;42800;53.928;27.662;2023-01-08T06:35:40;100057.69;;;-9.30;100.00
56912;BME280;42800;53.928;27.662;2023-01-08T06:38:06;100052.69;;;-9.06;100.00
56912;BME280;42800;53.928;27.662;2023-01-08T06:40:32;100021.19;;;-9.34;100.00
56912;BME280;42800;53.928;27.662;2023-01-08T06:43:00;100025.63;;;-9.28;100.00
56912;BME280;42800;53.928;27.662;2023-01-08T06:45:26;100001.16;;;-9.68;100.00
56912;BME280;42800;53.928;27.662;2023-01-08T06:47:52;100043.59;;;-9.62;100.00
56912;BME280;42800;53.928;27.662;2023-01-08T06:50:19;100067.53;;;-9.75;100.00
56912;BME280;42800;53.928;27.662;2023-01-08T06:52:51;100102.81;;;-9.68;100.00
56912;BME280;42800;53.928;27.662;2023-01-08T06:55:19;100131.97;;;-9.55;100.00
56912;BME280;42800;53.928;27.662;2023-01-08T06:57:45;100137.44;;;-9.50;100.00
56912;BME280;42800;53.928;27.662;2023-01-08T07:00:12;100135.50;;;-9.74;100.00
56912;BME280;42800;53.928;27.662;2023-01-08T07:02:38;100162.22;;;-9.62;100.00
56912;BME280;42800;53.928;27.662;2023-01-08T07:05:05;100187.28;;;-9.45;100.00
56912;BME280;42800;53.928;27.662;2023-01-08T07:07:31;100165.41;;;-9.47;100.00
56912;BME280;42800;53.928;27.662;2023-01-08T07:09:58;100186.19;;;-9.31;100.00
56912;BME280;42800;53.928;27.662;2023-01-08T07:12:25;100172.88;;;-9.17;100.00
56912;BME280;42800;53.928;27.662;2023-01-08T07:14:51;100162.28;;;-9.24;100.00
56912;BME280;42800;53.928;27.662;2023-01-08T07:17:17;100181.38;;;-8.64;100.00
56912;BME280;42800;53.928;27.662;2023-01-08T07:19:43;100147.09;;;-8.72;100.00
56912;BME280;42800;53.928;27.662;2023-01-08T07:22:10;100109.25;;;-8.74;100.00
56912;BME280;42800;53.928;27.662;2023-01-08T07:24:36;100071.16;;;-8.61;100.00
56912;BME280;42800;53.928;27.662;2023-01-08T07:27:03;100030.06;;;-8.90;100.00
56912;BME280;42800;53.928;27.662;2023-01-08T07:29:29;99986.69;;;-8.84;100.00
56912;BME280;42800;53.928;27.662;2023-01-08T07:31:55;99968.56;;;-8.94;100.00
56912;BME280;42800;53.928;27.662;2023-01-08T07:34:22;99971.06;;;-8.74;100.00
56912;BME280;42800;53.928;27.662;2023-01-08T07:36:48;99930.06;;;-8.85;100.00
56912;BME280;42800;53.928;27.662;2023-01-08T07:39:14;99929.09;;;-8.90;100.00
56912;BME280;42800;53.928;27.662;2023-01-08T07:41:40;99917.59;;;-8.84;100.00
56912;BME280;42800;53.928;27.662;2023-01-08T07:44:07;99903.19;;;-8.77;100.00
56912;BME280;42800;53.928;27.662;2023-01-08T07:46:33;99888.31;;;-8.59;100.00
56912;BME280;42800;53.928;27.662;2023-01-08T07:49:00;99850.19;;;-8.90;100.00
56912;BME280;42800;53.928;27.662;2023-01-08T07:51:26;99863.59;;;-9.03;100.00
56912;BME280;42800;53.928;27.662;2023-01-08T07:53:52;99868.06;;;-8.60;100.00
56912;BME280;42800;53.928;27.662;2023-01-08T07:56:20;99872.78;;;-8.44;100.00
56912;BME280;42800;53.928;27.662;2023-01-08T07:58:47;99816.44;;;-8.22;100.00
56912;BME280;42800;53.928;27.662;2023-01-08T08:01:14;99737.13;;;-9.04;100.00
56912;BME280;42800;53.928;27.662;2023-01-08T08:03:41;99802.03;;;-8.33;100.00
56912;BME280;42800;53.928;27.662;2023-01-08T08:06:07;99778.44;;;-8.90;100.00
56912;BME280;42800;53.928;27.662;2023-01-08T08:08:34;99823.81;;;-8.55;100.00
56912;BME280;42800;53.928;27.662;2023-01-08T08:11:01;99803.97;;;-8.70;100.00
56912;BME280;42800;53.928;27.662;2023-01-08T08:13:27;99815.84;;;-8.55;100.00
56912;BME280;42800;53.928;27.662;2023-01-08T08:15:54;99824.25;;;-8.27;100.00
56912;BME280;42800;53.928;27.662;2023-01-08T08:18:21;99815.25;;;-8.26;100.00
56912;BME280;42800;53.928;27.662;2023-01-08T08:20:47;99796.00;;;-8.70;100.00
56912;BME280;42800;53.928;27.662;2023-01-08T08:23:16;99828.19;;;-8.60;100.00
56912;BME280;42800;53.928;27.662;2023-01-08T08:25:42;99835.16;;;-8.59;100.00
56912;BME280;42800;53.928;27.662;2023-01-08T08:28:10;99853.88;;;-8.54;100.00
56912;BME280;42800;53.928;27.662;2023-01-08T08:30:37;99862.38;;;-8.64;100.00
56912;BME280;42800;53.928;27.662;2023-01-08T08:33:05;99883.06;;;-8.66;100.00
56912;BME280;42800;53.928;27.662;2023-01-08T08:35:33;99917.59;;;-8.29;100.00
56912;BME280;42800;53.928;27.662;2023-01-08T08:38:00;99905.13;;;-8.47;100.00
56912;BME280;42800;53.928;27.662;2023-01-08T08:40:26;99912.03;;;-8.27;100.00
56912;BME280;42800;53.928;27.662;2023-01-08T08:42:55;99900.47;;;-8.03;100.00
56912;BME280;42800;53.928;27.662;2023-01-08T08:45:21;99860.59;;;-8.21;100.00
56912;BME280;42800;53.928;27.662;2023-01-08T08:47:47;99891.50;;;-7.90;100.00
56912;BME280;42800;53.928;27.662;2023-01-08T08:50:14;99855.72;;;-8.06;100.00
56912;BME280;42800;53.928;27.662;2023-01-08T08:52:41;99859.78;;;-8.22;100.00
56912;BME280;42800;53.928;27.662;2023-01-08T08:55:09;99882.34;;;-7.94;100.00
56912;BME280;42800;53.928;27.662;2023-01-08T08:57:37;99850.13;;;-7.74;100.00
56912;BME280;42800;53.928;27.662;2023-01-08T09:00:04;99804.53;;;-7.66;100.00
56912;BME280;42800;53.928;27.662;2023-01-08T09:02:31;99746.16;;;-7.91;100.00
56912;BME280;42800;53.928;27.662;2023-01-08T09:04:57;99744.81;;;-7.59;100.00
56912;BME280;42800;53.928;27.662;2023-01-08T09:07:23;99725.69;;;-7.79;100.00
56912;BME280;42800;53.928;27.662;2023-01-08T09:09:50;99738.09;;;-7.49;100.00
56912;BME280;42800;53.928;27.662;2023-01-08T09:12:16;99697.09;;;-7.72;100.00
56912;BME280;42800;53.928;27.662;2023-01-08T09:14:42;99724.19;;;-7.51;100.00
56912;BME280;42800;53.928;27.662;2023-01-08T09:17:09;99712.47;;;-7.97;100.00
56912;BME280;42800;53.928;27.662;2023-01-08T09:19:35;99793.06;;;-7.78;100.00
56912;BME280;42800;53.928;27.662;2023-01-08T09:22:01;99811.59;;;-7.60;100.00
56912;BME280;42800;53.928;27.662;2023-01-08T09:24:28;99813.91;;;-7.40;100.00
56912;BME280;42800;53.928;27.662;2023-01-08T09:26:57;99791.47;;;-7.32;100.00
56912;BME280;42800;53.928;27.662;2023-01-08T09:29:24;99791.69;;;-7.34;100.00
56912;BME280;42800;53.928;27.662;2023-01-08T09:31:50;99793.28;;;-7.68;100.00
56912;BME280;42800;53.928;27.662;2023-01-08T09:34:17;99818.16;;;-7.86;100.00
56912;BME280;42800;53.928;27.662;2023-01-08T09:36:43;99882.25;;;-7.88;100.00
56912;BME280;42800;53.928;27.662;2023-01-08T09:39:09;99944.00;;;-7.97;100.00
56912;BME280;42800;53.928;27.662;2023-01-08T09:41:43;99989.88;;;-7.84;100.00
56912;BME280;42800;53.928;27.662;2023-01-08T09:44:14;100038.88;;;-7.24;100.00
56912;BME280;42800;53.928;27.662;2023-01-08T09:46:43;100013.75;;;-7.28;100.00
56912;BME280;42800;53.928;27.662;2023-01-08T09:49:14;100001.28;;;-7.46;100.00
56912;BME280;42800;53.928;27.662;2023-01-08T09:51:44;100044.91;;;-7.29;100.00
56912;BME280;42800;53.928;27.662;2023-01-08T09:54:13;100035.00;;;-7.40;100.00
56912;BME280;42800;53.928;27.662;2023-01-08T09:56:40;100057.81;;;-7.44;100.00
56912;BME280;42800;53.928;27.662;2023-01-08T09:59:11;100066.84;;;-7.15;100.00
56912;BME280;42800;53.928;27.662;2023-01-08T10:01:38;100063.63;;;-7.66;100.00
56912;BME280;42800;53.928;27.662;2023-01-08T10:04:10;100103.53;;;-7.47;100.00
56912;BME280;42800;53.928;27.662;2023-01-08T10:06:39;100132.25;;;-7.68;100.00
56912;BME280;42800;53.928;27.662;2023-01-08T10:09:05;100169.91;;;-7.46;100.00
56912;BME280;42800;53.928;27.662;2023-01-08T10:11:39;100184.41;;;-7.42;100.00
56912;BME280;42800;53.928;27.662;2023-01-08T10:14:18;100191.06;;;-7.51;100.00
56912;BME280;42800;53.928;27.662;2023-01-08T10:16:47;100218.22;;;-7.42;100.00
56912;BME280;42800;53.928;27.662;2023-01-08T10:19:14;100236.00;;;-6.99;100.00
56912;BME280;42800;53.928;27.662;2023-01-08T10:21:40;100220.16;;;-7.13;100.00
56912;BME280;42800;53.928;27.662;2023-01-08T10:24:07;100222.38;;;-7.09;100.00
56912;BME280;42800;53.928;27.662;2023-01-08T10:26:34;100211.09;;;-7.48;100.00
56912;BME280;42800;53.928;27.662;2023-01-08T10:29:06;100254.09;;;-7.26;100.00
56912;BME280;42800;53.928;27.662;2023-01-08T10:31:33;100255.41;;;-7.54;100.00
56912;BME280;42800;53.928;27.662;2023-01-08T10:34:08;100279.28;;;-7.22;100.00
56912;BME280;42800;53.928;27.662;2023-01-08T10:36:39;100281.91;;;-7.41;100.00
56912;BME280;42800;53.928;27.662;2023-01-08T10:39:19;100292.09;;;-7.13;100.00
56912;BME280;42800;53.928;27.662;2023-01-08T10:41:47;100288.66;;;-7.38;100.00
56912;BME280;42800;53.928;27.662;2023-01-08T10:44:15;100303.84;;;-7.39;100.00
56912;BME280;42800;53.928;27.662;2023-01-08T10:46:44;100307.31;;;-7.20;100.00
56912;BME280;42800;53.928;27.662;2023-01-08T10:49:17;100310.28;;;-7.28;100.00
56912;BME280;42800;53.928;27.662;2023-01-08T10:51:48;100309.84;;;-7.50;100.00
56912;BME280;42800;53.928;27.662;2023-01-08T10:54:34;100324.47;;;-7.34;100.00
56912;BME280;42800;53.928;27.662;2023-01-08T10:57:01;100328.34;;;-7.30;100.00
56912;BME280;42800;53.928;27.662;2023-01-08T10:59:28;100324.16;;;-7.01;100.00
56912;BME280;42800;53.928;27.662;2023-01-08T11:01:59;100326.41;;;-6.79;100.00
56912;BME280;42800;53.928;27.662;2023-01-08T11:04:28;100318.47;;;-6.68;100.00
56912;BME280;42800;53.928;27.662;2023-01-08T11:06:59;100318.78;;;-6.76;100.00
56912;BME280;42800;53.928;27.662;2023-01-08T11:09:28;100307.22;;;-6.88;100.00
56912;BME280;42800;53.928;27.662;2023-01-08T11:11:56;100306.41;;;-6.40;100.00
56912;BME280;42800;53.928;27.662;2023-01-08T11:14:25;100306.31;;;-6.64;100.00
56912;BME280;42800;53.928;27.662;2023-01-08T11:16:55;100294.47;;;-7.04;100.00
56912;BME280;42800;53.928;27.662;2023-01-08T11:19:25;100294.50;;;-6.86;100.00
56912;BME280;42800;53.928;27.662;2023-01-08T11:21:57;100296.63;;;-6.95;100.00
56912;BME280;42800;53.928;27.662;2023-01-08T11:24:27;100302.91;;;-6.52;100.00
56912;BME280;42800;53.928;27.662;2023-01-08T11:27:00;100291.66;;;-6.73;100.00
56912;BME280;42800;53.928;27.662;2023-01-08T11:29:33;100292.88;;;-6.57;100.00
56912;BME280;42800;53.928;27.662;2023-01-08T11:32:24;100279.31;;;-6.85;100.00
56912;BME280;42800;53.928;27.662;2023-01-08T11:34:58;100274.94;;;-6.50;100.00
56912;BME280;42800;53.928;27.662;2023-01-08T11:37:28;100266.41;;;-6.89;100.00
56912;BME280;42800;53.928;27.662;2023-01-08T11:39:59;100276.47;;;-6.91;100.00
56912;BME280;42800;53.928;27.662;2023-01-08T11:42:38;100290.56;;;-6.35;100.00
56912;BME280;42800;53.928;27.662;2023-01-08T11:45:19;100280.75;;;-6.71;100.00
56912;BME280;42800;53.928;27.662;2023-01-08T11:48:12;100274.09;;;-6.80;100.00
56912;BME280;42800;53.928;27.662;2023-01-08T11:50:53;100288.72;;;-6.83;100.00
56912;BME280;42800;53.928;27.662;2023-01-08T11:53:26;100284.06;;;-6.39;100.00
56912;BME280;42800;53.928;27.662;2023-01-08T11:56:05;100274.91;;;-6.80;100.00
56912;BME280;42800;53.928;27.662;2023-01-08T11:58:47;100274.13;;;-6.99;100.00
56912;BME280;42800;53.928;27.662;2023-01-08T12:01:30;100296.94;;;-6.36;100.00
56912;BME280;42800;53.928;27.662;2023-01-08T12:04:17;100284.53;;;-6.30;100.00
56912;BME280;42800;53.928;27.662;2023-01-08T12:06:51;100274.22;;;-6.57;100.00
56912;BME280;42800;53.928;27.662;2023-01-08T12:09:32;100264.75;;;-6.71;100.00
56912;BME280;42800;53.928;27.662;2023-01-08T12:12:04;100266.00;;;-6.74;100.00
56912;BME280;42800;53.928;27.662;2023-01-08T12:14:45;100266.50;;;-6.95;100.00
56912;BME280;42800;53.928;27.662;2023-01-08T12:17:44;100273.16;;;-7.04;100.00
56912;BME280;42800;53.928;27.662;2023-01-08T12:20:23;100273.50;;;-7.01;100.00
56912;BME280;42800;53.928;27.662;2023-01-08T12:23:03;100274.13;;;-6.99;100.00
56912;BME280;42800;53.928;27.662;2023-01-08T12:25:49;100282.00;;;-6.55;100.00
56912;BME280;42800;53.928;27.662;2023-01-08T12:28:34;100284.59;;;-6.49;100.00
56912;BME280;42800;53.928;27.662;2023-01-08T12:31:22;100272.91;;;-6.84;100.00
56912;BME280;42800;53.928;27.662;2023-01-08T12:33:57;100274.84;;;-6.92;100.00
56912;BME280;42800;53.928;27.662;2023-01-08T12:36:31;100275.44;;;-7.08;100.00
56912;BME280;42800;53.928;27.662;2023-01-08T12:39:02;100271.16;;;-7.09;100.00
56912;BME280;42800;53.928;27.662;2023-01-08T12:41:30;100264.84;;;-7.15;100.00